Time;durP1;ratioP1;P1;durP2;ratioP2;P2;SDS_P1;SDS_P2;PMS_P1;PMS_P2;Temp;Humidity;BMP_temperature;BMP_pressure;BME280_temperature;BME280_humidity;BME280_pressure;Samples;Min_cycle;Max_cycle;Signal;HPM_P1;HPM_P2
2023/06/02 00:00:20;;;;;;;4.18;3.78;;;;;;;19.40;43.79;96729.66;10381694;28;20087;-44
2023/06/02 00:06:05;;;;;;;4.93;3.55;;;;;;;19.38;43.72;96737.28;10379852;28;20049;-44
2023/06/02 00:11:25;;;;;;;4.55;3.33;;;;;;;19.36;43.81;96729.50;10381310;28;20038;-48
2023/06/02 00:16:45;;;;;;;5.00;3.47;;;;;;;19.35;43.78;96727.94;10397421;28;20046;-48
2023/06/02 00:22:05;;;;;;;4.68;3.40;;;;;;;19.36;43.94;96724.09;10383868;28;20045;-49
2023/06/02 00:27:25;;;;;;;3.72;3.42;;;;;;;19.35;43.70;96725.25;10370840;28;20049;-49
2023/06/02 00:32:45;;;;;;;4.93;3.60;;;;;;;19.33;43.66;96714.75;10380599;28;20045;-49
2023/06/02 00:38:04;;;;;;;4.28;3.33;;;;;;;19.32;43.69;96718.56;10379826;28;20046;-48
2023/06/02 00:43:24;;;;;;;4.45;3.10;;;;;;;19.31;43.82;96713.50;10391332;28;20523;-47
2023/06/02 00:48:44;;;;;;;8.98;3.42;;;;;;;19.31;43.65;96718.91;10380705;28;20049;-45
2023/06/02 00:54:05;;;;;;;4.75;3.20;;;;;;;19.29;43.53;96713.03;10425335;28;20053;-48
2023/06/02 00:59:25;;;;;;;5.50;3.40;;;;;;;19.29;43.79;96702.22;10427732;28;20460;-48
2023/06/02 01:04:46;;;;;;;4.80;3.38;;;;;;;19.27;43.58;96710.66;10382968;28;20046;-56
2023/06/02 01:10:07;;;;;;;4.22;3.53;;;;;;;19.27;43.54;96709.88;10374944;28;20086;-56
2023/06/02 01:15:27;;;;;;;4.43;3.30;;;;;;;19.27;43.64;96709.88;10419763;28;20041;-56
2023/06/02 01:20:51;;;;;;;4.55;3.30;;;;;;;19.26;43.52;96710.97;10389769;28;20042;-56
2023/06/02 01:26:13;;;;;;;6.70;3.80;;;;;;;19.24;43.55;96710.50;10434072;28;20497;-56
2023/06/02 01:31:40;;;;;;;5.28;3.33;;;;;;;19.23;43.50;96706.19;10379069;28;20513;-56
2023/06/02 01:37:01;;;;;;;4.80;3.25;;;;;;;19.22;43.50;96707.34;10435886;28;20099;-56
2023/06/02 01:42:21;;;;;;;5.57;3.38;;;;;;;19.21;43.58;96709.25;10379654;28;20064;-56
2023/06/02 01:47:41;;;;;;;4.82;3.38;;;;;;;19.19;43.70;96714.19;10436461;28;20046;-56
2023/06/02 01:53:00;;;;;;;4.68;3.42;;;;;;;19.19;43.62;96714.19;10374852;28;20050;-56
2023/06/02 01:58:20;;;;;;;5.32;3.20;;;;;;;19.17;43.70;96706.41;10385925;28;20502;-56
2023/06/02 02:03:40;;;;;;;3.70;3.30;;;;;;;19.16;43.66;96712.91;10443518;28;20050;-56
2023/06/02 02:09:00;;;;;;;3.65;3.08;;;;;;;19.15;43.68;96724.84;10385202;28;20057;-56
2023/06/02 02:14:19;;;;;;;4.60;3.70;;;;;;;19.15;43.61;96719.44;10396123;28;20050;-56
2023/06/02 02:19:39;;;;;;;4.55;3.28;;;;;;;19.15;43.68;96724.03;10390708;28;20042;-56
2023/06/02 02:24:59;;;;;;;3.78;3.22;;;;;;;19.11;43.78;96723.91;10385406;28;20094;-56
2023/06/02 02:30:20;;;;;;;5.85;3.22;;;;;;;19.11;43.80;96723.91;10400721;28;20099;-56
2023/06/02 02:35:41;;;;;;;5.10;3.30;;;;;;;19.09;43.85;96726.13;10453712;28;20095;-56
2023/06/02 02:41:01;;;;;;;4.10;3.30;;;;;;;19.10;44.00;96721.50;10385909;28;20448;-56
2023/06/02 02:46:21;;;;;;;5.80;3.45;;;;;;;19.10;44.25;96726.91;10435851;28;20042;-56
2023/06/02 02:51:41;;;;;;;5.55;3.40;;;;;;;19.11;44.31;96736.59;10378576;28;20087;-56
2023/06/02 02:57:00;;;;;;;6.82;3.40;;;;;;;19.09;44.42;96734.22;10388511;28;20045;-56
2023/06/02 03:02:20;;;;;;;6.20;3.38;;;;;;;19.09;44.53;96736.13;10377116;28;20046;-56
2023/06/02 03:07:40;;;;;;;5.63;3.17;;;;;;;19.08;44.78;96737.25;10451889;28;20037;-56
2023/06/02 03:13:00;;;;;;;4.15;3.15;;;;;;;19.07;44.84;96739.16;10426441;28;20038;-56
2023/06/02 03:18:20;;;;;;;5.30;3.55;;;;;;;19.07;44.86;96733.75;10434624;28;20539;-56
2023/06/02 03:23:40;;;;;;;5.43;3.40;;;;;;;19.08;45.05;96734.53;10440533;28;20452;-56
2023/06/02 03:29:00;;;;;;;4.97;3.33;;;;;;;19.07;45.13;96744.56;10374217;28;20046;-56
2023/06/02 03:34:22;;;;;;;6.30;3.13;;;;;;;19.07;45.24;96744.56;10452626;28;20064;-56
2023/06/02 03:39:43;;;;;;;5.65;3.00;;;;;;;19.06;45.25;96742.19;10383382;28;20061;-56
2023/06/02 03:45:04;;;;;;;4.00;3.08;;;;;;;19.06;45.37;96742.97;10414141;28;20128;-56
2023/06/02 03:50:24;;;;;;;4.55;3.10;;;;;;;19.05;45.37;96749.50;10438351;28;20054;-55
2023/06/02 03:55:44;;;;;;;6.35;3.22;;;;;;;19.06;45.40;96747.56;10439652;28;20069;-56
2023/06/02 04:01:05;;;;;;;5.88;3.47;;;;;;;19.05;45.37;96754.06;10449916;28;20505;-56
2023/06/02 04:06:28;;;;;;;5.85;3.13;;;;;;;19.04;45.42;96756.00;10441818;28;20046;-56
2023/06/02 04:11:48;;;;;;;5.50;3.13;;;;;;;19.03;45.47;96762.50;10444613;28;20509;-56
2023/06/02 04:17:09;;;;;;;5.28;3.03;;;;;;;19.04;45.51;96756.00;10439218;28;20046;-48
2023/06/02 04:22:29;;;;;;;5.35;3.30;;;;;;;19.05;45.63;96765.69;10449020;28;20038;-47
2023/06/02 04:27:49;;;;;;;5.10;3.28;;;;;;;19.04;45.72;96768.72;10389821;28;20057;-47
2023/06/02 04:33:08;;;;;;;4.82;3.13;;;;;;;19.04;45.86;96766.00;10445331;28;20042;-47
2023/06/02 04:38:31;;;;;;;3.95;3.08;;;;;;;19.05;46.12;96764.88;10438029;28;20095;-47
2023/06/02 04:43:51;;;;;;;5.07;3.20;;;;;;;19.08;46.34;96778.53;10462858;28;20094;-49
2023/06/02 04:49:11;;;;;;;5.05;2.92;;;;;;;19.10;46.58;96770.91;10370362;28;20042;-46
2023/06/02 04:54:32;;;;;;;6.47;3.65;;;;;;;19.12;46.53;96778.69;10436948;28;20058;-47
2023/06/02 04:59:51;;;;;;;5.75;2.90;;;;;;;19.15;46.36;96772.63;10357389;28;20077;-49
2023/06/02 05:05:12;;;;;;;5.00;3.10;;;;;;;19.16;46.60;96766.91;10436203;28;20056;-49
2023/06/02 05:10:33;;;;;;;7.32;2.97;;;;;;;19.20;46.76;96772.47;10437024;28;20046;-48
2023/06/02 05:15:53;;;;;;;7.82;2.97;;;;;;;19.21;46.69;96782.16;10449450;28;20049;-47
2023/06/02 05:21:13;;;;;;;7.43;2.88;;;;;;;19.24;46.84;96786.13;10397381;28;20498;-46
2023/06/02 05:26:33;;;;;;;14.27;4.30;;;;;;;19.25;46.83;96790.41;10443045;28;20050;-46
2023/06/02 05:31:53;;;;;;;14.35;4.63;;;;;;;19.27;47.03;96786.28;10386261;28;20042;-47
2023/06/02 05:37:13;;;;;;;14.88;5.00;;;;;;;19.30;47.17;96779.44;10444006;28;20042;-47
2023/06/02 05:42:33;;;;;;;17.00;4.78;;;;;;;19.32;47.30;96780.69;10388961;28;20099;-45
2023/06/02 05:47:53;;;;;;;11.63;4.25;;;;;;;19.35;47.37;96787.38;10443748;28;20437;-47
2023/06/02 05:53:15;;;;;;;14.07;4.75;;;;;;;19.38;47.33;96797.50;10436296;28;20054;-48
2023/06/02 05:58:39;;;;;;;11.65;5.22;;;;;;;19.40;47.34;96803.38;10447475;28;20046;-45
2023/06/02 06:03:58;;;;;;;10.35;4.60;;;;;;;19.42;47.58;96809.25;10443847;28;20413;-46
2023/06/02 06:09:19;;;;;;;10.98;4.97;;;;;;;19.44;47.58;96801.63;10448077;28;20056;-47
2023/06/02 06:14:39;;;;;;;11.80;4.43;;;;;;;19.46;47.48;96818.28;10398968;28;20054;-45
2023/06/02 06:19:59;;;;;;;14.15;5.05;;;;;;;19.49;47.46;96809.56;10432979;28;20064;-45
2023/06/02 06:25:19;;;;;;;14.52;4.32;;;;;;;19.51;47.63;96817.34;10387887;28;20054;-45
2023/06/02 06:30:41;;;;;;;10.18;4.25;;;;;;;19.52;47.55;96811.63;10445167;28;20066;-46
2023/06/02 06:36:02;;;;;;;8.48;3.90;;;;;;;19.54;47.54;96822.09;10434232;28;20535;-45
2023/06/02 06:41:22;;;;;;;8.20;4.00;;;;;;;19.56;47.68;96822.56;10448352;28;20042;-48
2023/06/02 06:46:42;;;;;;;9.43;4.38;;;;;;;19.59;47.70;96829.25;10441733;28;20050;-48
2023/06/02 06:52:03;;;;;;;6.75;3.78;;;;;;;19.59;47.72;96830.03;10448779;28;20084;-46
2023/06/02 06:57:23;;;;;;;7.35;3.70;;;;;;;19.61;47.94;96832.41;10444369;28;20087;-47
2023/06/02 07:02:44;;;;;;;7.65;4.35;;;;;;;19.63;47.85;96846.41;10383830;28;20053;-46
2023/06/02 07:08:03;;;;;;;7.72;3.85;;;;;;;19.64;47.87;96839.88;10381920;28;20038;-46
2023/06/02 07:13:27;;;;;;;6.18;3.38;;;;;;;19.65;47.91;96850.34;10383399;28;20046;-45
2023/06/02 07:18:47;;;;;;;10.02;4.40;;;;;;;19.66;47.69;96857.34;10396237;28;20132;-46
2023/06/02 07:24:07;;;;;;;8.75;3.95;;;;;;;19.67;47.67;96852.75;10397871;28;20058;-45
2023/06/02 07:29:27;;;;;;;7.97;3.70;;;;;;;19.66;48.20;96862.75;10374235;28;20387;-45
2023/06/02 07:34:47;;;;;;;9.77;4.20;;;;;;;19.68;48.02;96860.53;10385551;28;20042;-48
2023/06/02 07:40:08;;;;;;;7.20;3.90;;;;;;;19.69;48.12;96859.41;10392088;28;20049;-46
2023/06/02 07:45:27;;;;;;;6.82;3.78;;;;;;;19.71;48.21;96856.38;10362440;28;20115;-46
2023/06/02 07:50:46;;;;;;;8.07;3.95;;;;;;;19.71;48.24;96864.50;10371722;28;20065;-46
2023/06/02 07:56:06;;;;;;;12.43;5.30;;;;;;;19.73;48.45;96851.47;10399384;28;20041;-45
2023/06/02 08:01:25;;;;;;;19.50;5.55;;;;;;;19.72;48.29;96861.50;10387319;28;20046;-47
2023/06/02 08:06:45;;;;;;;19.63;5.55;;;;;;;19.73;48.51;96854.19;10470168;28;20045;-47
2023/06/02 08:12:05;;;;;;;13.02;4.68;;;;;;;19.74;48.61;96863.88;10382693;28;20046;-46
2023/06/02 08:17:31;;;;;;;12.57;5.18;;;;;;;19.74;48.64;96851.16;10429217;28;20044;-45
2023/06/02 08:22:50;;;;;;;14.65;4.97;;;;;;;19.75;48.68;96857.34;10383974;28;20054;-45
2023/06/02 08:28:11;;;;;;;15.38;5.32;;;;;;;19.76;48.67;96848.13;10387246;28;20124;-46
2023/06/02 08:33:33;;;;;;;13.20;4.88;;;;;;;19.76;48.83;96853.53;10383644;28;20048;-45
2023/06/02 08:38:53;;;;;;;12.02;5.15;;;;;;;19.75;48.67;96850.03;10383255;28;20042;-45
2023/06/02 08:44:13;;;;;;;12.30;5.15;;;;;;;19.77;48.82;96851.63;10424856;28;20131;-46
2023/06/02 08:49:41;;;;;;;11.27;4.57;;;;;;;19.77;49.10;96851.63;10390132;28;20045;-47
2023/06/02 08:55:03;;;;;;;11.13;4.90;;;;;;;19.77;48.97;96855.13;10372935;28;20042;-46
2023/06/02 09:00:23;;;;;;;13.18;4.90;;;;;;;19.77;48.94;96868.63;10388495;28;20053;-46
2023/06/02 09:05:43;;;;;;;11.68;4.88;;;;;;;19.76;48.98;96867.06;10437262;28;20417;-45
2023/06/02 09:11:14;;;;;;;14.85;5.75;;;;;;;19.78;49.07;96872.13;10368750;28;20110;-46
2023/06/02 09:16:39;;;;;;;13.13;5.30;;;;;;;19.78;49.06;96862.13;10379530;28;20042;-45
2023/06/02 09:22:05;;;;;;;13.77;5.80;;;;;;;19.79;49.25;96877.22;10388426;28;20504;-47
2023/06/02 09:27:25;;;;;;;10.48;4.88;;;;;;;19.77;49.52;96879.44;10367494;28;20052;-46
2023/06/02 09:32:53;;;;;;;9.70;4.90;;;;;;;19.78;49.71;96883.75;10379231;28;20044;-45
2023/06/02 09:38:17;;;;;;;9.48;4.32;;;;;;;19.81;49.87;96887.69;10366474;28;20062;-47
2023/06/02 09:43:36;;;;;;;12.27;4.57;;;;;;;19.80;49.76;96886.09;10371695;28;20091;-48
2023/06/02 09:48:57;;;;;;;11.98;4.68;;;;;;;19.81;50.02;96880.38;10365811;28;20050;-45
2023/06/02 09:54:17;;;;;;;11.30;4.50;;;;;;;19.80;50.00;96883.41;10383860;28;20062;-47
2023/06/02 09:59:41;;;;;;;6.72;3.70;;;;;;;19.81;49.86;96874.19;10381275;28;20038;-45
2023/06/02 10:05:00;;;;;;;9.50;4.80;;;;;;;19.82;49.96;96873.09;10378622;28;20050;-48
2023/06/02 10:10:26;;;;;;;7.85;4.22;;;;;;;19.81;50.02;96880.38;10378282;28;20034;-45
2023/06/02 10:16:13;;;;;;;11.02;4.70;;;;;;;19.81;49.98;96888.50;10391147;28;20079;-46
2023/06/02 10:22:10;;;;;;;8.27;4.07;;;;;;;19.82;49.99;96900.13;10389138;28;20054;-45
2023/06/02 10:27:35;;;;;;;7.32;3.92;;;;;;;19.82;50.04;96884.69;10372207;28;20064;-47
2023/06/02 10:32:55;;;;;;;8.77;3.70;;;;;;;19.81;49.97;96882.28;10437960;28;20050;-45
2023/06/02 10:38:31;;;;;;;7.40;3.95;;;;;;;19.82;50.05;96884.69;10384771;28;20048;-46
2023/06/02 10:44:24;;;;;;;8.05;3.92;;;;;;;19.82;50.20;96881.97;10384872;28;20493;-47
2023/06/02 10:50:10;;;;;;;7.72;3.53;;;;;;;19.81;50.16;96877.69;10385841;28;20042;-48
2023/06/02 10:55:31;;;;;;;7.38;3.40;;;;;;;19.83;50.22;96890.88;10549732;28;20040;-45
2023/06/02 11:00:52;;;;;;;7.80;3.60;;;;;;;19.83;50.16;96883.56;10559248;28;20481;-44
2023/06/02 11:06:19;;;;;;;7.38;3.70;;;;;;;19.84;50.07;96881.66;10555503;28;20044;-45
2023/06/02 11:11:50;;;;;;;8.18;3.55;;;;;;;19.83;50.31;96880.84;10550753;28;20051;-46
2023/06/02 11:17:29;;;;;;;6.07;3.40;;;;;;;19.84;50.20;96895.19;10577889;28;20048;-46
2023/06/02 11:22:48;;;;;;;6.93;3.60;;;;;;;19.84;50.27;96887.84;10543134;28;20484;-45
2023/06/02 11:28:21;;;;;;;5.85;3.22;;;;;;;19.84;50.28;96890.56;10557008;28;20040;-44
2023/06/02 11:33:47;;;;;;;8.30;3.80;;;;;;;19.83;50.20;96894.38;10553431;28;20040;-45
2023/06/02 11:39:08;;;;;;;6.43;3.40;;;;;;;19.83;50.29;96891.66;10557669;28;20036;-45
2023/06/02 11:44:27;;;;;;;7.40;3.58;;;;;;;19.82;50.28;96895.50;10567743;28;20412;-45
2023/06/02 11:49:47;;;;;;;7.05;3.47;;;;;;;19.83;50.44;96894.38;10555247;28;20044;-45
2023/06/02 11:55:08;;;;;;;6.13;3.40;;;;;;;19.83;50.34;96888.97;10351168;28;20042;-46
2023/06/02 12:00:30;;;;;;;8.30;3.53;;;;;;;19.83;50.41;96899.78;10334976;28;20407;-45
2023/06/02 12:05:49;;;;;;;5.93;3.22;;;;;;;19.83;50.37;96896.28;10360001;28;20116;-46
2023/06/02 12:11:16;;;;;;;6.47;3.53;;;;;;;19.84;50.46;96900.59;10345719;28;20514;-46
2023/06/02 12:16:38;;;;;;;6.05;3.38;;;;;;;19.83;50.50;96894.38;10335403;28;20096;-46
2023/06/02 12:22:06;;;;;;;5.13;3.03;;;;;;;19.83;50.51;96890.88;10315847;28;20038;-46
2023/06/02 12:27:28;;;;;;;6.10;3.30;;;;;;;19.84;50.55;96890.56;10343273;28;20053;-47
2023/06/02 12:32:47;;;;;;;6.88;3.40;;;;;;;19.83;50.49;96893.56;10332928;28;20049;-46
2023/06/02 12:38:08;;;;;;;4.85;2.88;;;;;;;19.83;50.55;96894.38;10339544;28;20046;-45
2023/06/02 12:43:27;;;;;;;4.13;2.92;;;;;;;19.83;50.52;96888.16;10342800;28;20050;-45
2023/06/02 12:48:47;;;;;;;5.40;2.97;;;;;;;19.84;50.59;96892.47;10336828;28;20084;-46
2023/06/02 12:54:07;;;;;;;5.50;2.90;;;;;;;19.84;50.55;96884.38;10350899;28;20069;-44
2023/06/02 12:59:27;;;;;;;4.88;2.97;;;;;;;19.83;50.63;96897.06;10366520;28;20077;-45
2023/06/02 13:04:47;;;;;;;5.55;3.20;;;;;;;19.83;50.64;96888.97;10448199;28;20054;-46
2023/06/02 13:10:08;;;;;;;6.05;3.33;;;;;;;19.84;50.82;96890.56;10382890;28;20116;-47
2023/06/02 13:15:28;;;;;;;4.78;2.75;;;;;;;19.85;50.74;96880.53;10382124;28;20038;-46
2023/06/02 13:20:48;;;;;;;4.68;2.92;;;;;;;19.85;50.82;96891.34;10369529;28;20061;-46
2023/06/02 13:26:07;;;;;;;5.55;3.40;;;;;;;19.85;50.83;96894.03;10374666;28;20061;-47
2023/06/02 13:31:27;;;;;;;6.38;3.10;;;;;;;19.85;50.86;96885.94;10366460;28;20050;-45
2023/06/02 13:36:46;;;;;;;4.35;2.80;;;;;;;19.85;50.91;96892.13;10390187;28;20494;-45
2023/06/02 13:42:06;;;;;;;5.53;2.90;;;;;;;19.84;51.04;96884.38;10398293;28;20049;-45
2023/06/02 13:47:26;;;;;;;5.32;2.97;;;;;;;19.85;50.97;96886.72;10382369;28;20056;-46
2023/06/02 13:52:46;;;;;;;5.53;3.10;;;;;;;19.85;51.01;96892.13;10380633;28;20058;-46
2023/06/02 13:58:05;;;;;;;4.72;2.72;;;;;;;19.86;51.12;96903.75;10420280;28;20098;-46
2023/06/02 14:03:25;;;;;;;5.20;2.40;;;;;;;19.86;51.22;96893.72;10400593;28;20490;-46
2023/06/02 14:08:45;;;;;;;3.58;2.08;;;;;;;19.86;51.17;96906.47;10396809;28;20447;-45
2023/06/02 14:14:05;;;;;;;3.33;2.45;;;;;;;19.87;51.29;96894.50;10374398;28;20066;-45
2023/06/02 14:19:25;;;;;;;4.70;2.80;;;;;;;19.89;51.46;96897.69;10391201;28;20046;-46
2023/06/02 14:24:45;;;;;;;4.32;2.47;;;;;;;19.91;51.31;96896.25;10384917;28;20042;-47
2023/06/02 14:30:05;;;;;;;3.65;2.65;;;;;;;19.93;51.37;96904.84;10371742;28;20129;-45
2023/06/02 14:35:25;;;;;;;4.90;2.60;;;;;;;19.94;51.38;96909.13;10384917;28;20045;-44
2023/06/02 14:40:45;;;;;;;5.95;2.55;;;;;;;19.95;51.43;96912.59;10371124;28;20123;-46
2023/06/02 14:46:06;;;;;;;4.90;2.60;;;;;;;19.95;51.22;96899.09;10397127;28;20046;-45
2023/06/02 14:51:26;;;;;;;6.82;2.80;;;;;;;19.94;50.72;96905.63;10382337;28;20574;-49
2023/06/02 14:56:45;;;;;;;6.78;2.60;;;;;;;19.85;45.91;96894.84;10388839;28;20041;-47
2023/06/02 15:02:06;;;;;;;4.88;2.65;;;;;;;19.78;44.72;96897.25;10383756;28;20042;-47
2023/06/02 15:07:25;;;;;;;13.13;2.80;;;;;;;19.74;44.27;96899.03;10386285;28;20041;-46
2023/06/02 15:12:45;;;;;;;7.32;2.97;;;;;;;19.70;42.76;96900.75;10383804;28;20595;-46
2023/06/02 15:18:04;;;;;;;9.65;2.53;;;;;;;19.67;42.77;96895.97;10394396;28;20402;-45
2023/06/02 15:23:24;;;;;;;10.60;2.92;;;;;;;19.71;43.90;96905.84;10383250;28;20102;-46
2023/06/02 15:28:45;;;;;;;9.73;2.92;;;;;;;19.74;43.95;96899.03;10397498;28;20042;-47
2023/06/02 15:34:05;;;;;;;8.38;3.20;;;;;;;19.77;44.19;96895.66;10423167;28;20044;-45
2023/06/02 15:39:24;;;;;;;9.68;2.92;;;;;;;19.76;43.31;96904.91;10392349;28;20053;-46
2023/06/02 15:44:44;;;;;;;7.43;3.08;;;;;;;19.79;43.60;96893.44;10369206;28;20046;-47
2023/06/02 15:50:05;;;;;;;6.28;2.97;;;;;;;19.79;44.23;96898.03;10392653;28;20046;-46
2023/06/02 15:55:24;;;;;;;13.55;3.20;;;;;;;19.77;43.51;96911.09;10381949;28;20053;-47
2023/06/02 16:00:44;;;;;;;12.98;2.83;;;;;;;19.77;43.00;96906.47;10369404;28;20054;-45
2023/06/02 16:06:04;;;;;;;11.65;3.17;;;;;;;19.78;43.40;96913.47;10382161;28;20063;-45
2023/06/02 16:11:24;;;;;;;9.52;2.90;;;;;;;19.78;43.48;96908.06;10388014;28;20091;-44
2023/06/02 16:16:43;;;;;;;7.53;2.45;;;;;;;19.78;43.53;96908.06;10397893;28;20045;-45
2023/06/02 16:22:03;;;;;;;10.15;3.17;;;;;;;19.79;43.93;96916.97;10380044;28;20457;-45
2023/06/02 16:27:23;;;;;;;9.23;3.10;;;;;;;19.81;43.67;96912.81;10398585;28;20494;-45
2023/06/02 16:32:43;;;;;;;5.47;2.72;;;;;;;19.81;43.63;96918.22;10380879;28;20508;-45
2023/06/02 16:38:02;;;;;;;8.15;2.72;;;;;;;19.81;43.58;96912.81;10368169;28;20044;-45
2023/06/02 16:43:22;;;;;;;8.77;2.67;;;;;;;19.82;43.52;96924.44;10380880;28;20041;-44
2023/06/02 16:48:42;;;;;;;7.30;2.72;;;;;;;19.81;43.79;96931.75;10380092;28;20045;-46
2023/06/02 16:54:03;;;;;;;10.43;3.10;;;;;;;19.82;43.55;96935.25;10377815;28;20077;-48
2023/06/02 16:59:23;;;;;;;11.23;2.97;;;;;;;19.81;43.59;96944.47;10437988;28;20053;-48
2023/06/02 17:04:43;;;;;;;7.60;3.17;;;;;;;19.78;43.71;96943.22;10380818;28;20054;-46
2023/06/02 17:10:04;;;;;;;5.88;2.80;;;;;;;19.78;42.80;96950.50;10378084;28;20045;-47
2023/06/02 17:15:23;;;;;;;5.97;2.70;;;;;;;19.75;43.40;96947.34;10382861;28;20056;-45
2023/06/02 17:20:43;;;;;;;9.23;2.60;;;;;;;19.73;43.75;96954.97;10385523;28;20037;-45
2023/06/02 17:26:03;;;;;;;8.85;2.65;;;;;;;19.72;43.21;96958.81;10398832;28;20489;-47
2023/06/02 17:31:22;;;;;;;6.70;2.65;;;;;;;19.71;43.48;96953.69;10385230;28;20049;-45
2023/06/02 17:36:42;;;;;;;6.65;2.58;;;;;;;19.69;42.97;96964.03;10386637;28;20159;-45
2023/06/02 17:42:02;;;;;;;12.00;2.35;;;;;;;19.68;42.65;96957.00;10401843;28;20098;-44
2023/06/02 17:47:22;;;;;;;10.82;2.78;;;;;;;19.66;43.51;96954.66;10402897;28;20046;-46
2023/06/02 17:52:42;;;;;;;8.75;2.50;;;;;;;19.67;44.26;96964.34;10384682;28;20057;-49
2023/06/02 17:58:02;;;;;;;12.13;3.03;;;;;;;19.71;45.58;96980.72;10404855;28;20041;-46
2023/06/02 18:03:22;;;;;;;10.23;3.15;;;;;;;19.70;46.41;96976.44;10378570;28;20050;-45
2023/06/02 18:08:42;;;;;;;15.07;3.95;;;;;;;19.72;47.13;96971.53;10396762;28;20052;-47
2023/06/02 18:14:02;;;;;;;13.98;4.82;;;;;;;19.72;47.54;96991.25;10372165;28;20137;-48
2023/06/02 18:19:21;;;;;;;15.50;5.10;;;;;;;19.72;48.06;96979.66;10385445;28;20067;-46
2023/06/02 18:24:41;;;;;;;17.92;6.53;;;;;;;19.72;48.69;96998.56;10385184;28;20511;-46
2023/06/02 18:30:00;;;;;;;19.63;6.95;;;;;;;19.73;49.11;97005.53;10393855;28;20038;-45
2023/06/02 18:35:20;;;;;;;39.45;13.82;;;;;;;19.73;50.51;97009.03;10385062;28;20042;-45
2023/06/02 18:40:40;;;;;;;39.85;16.85;;;;;;;19.73;51.60;97014.44;10384691;28;20398;-45
2023/06/02 18:46:00;;;;;;;39.22;14.63;;;;;;;19.75;52.11;97011.41;10381905;28;20109;-44
2023/06/02 18:51:20;;;;;;;36.40;13.48;;;;;;;19.74;51.26;97021.44;10382018;28;20089;-46
2023/06/02 18:56:39;;;;;;;29.48;10.95;;;;;;;19.73;50.92;97033.38;10389874;28;20046;-48
2023/06/02 19:01:59;;;;;;;34.58;11.38;;;;;;;19.73;51.37;97041.47;10384209;28;20042;-44
2023/06/02 19:07:22;;;;;;;27.30;10.00;;;;;;;19.72;51.48;97028.28;10376820;28;20387;-45
2023/06/02 19:12:42;;;;;;;25.02;9.20;;;;;;;19.72;51.33;97042.59;10408802;28;20072;-44
2023/06/02 19:18:02;;;;;;;25.88;9.35;;;;;;;19.73;51.57;97049.56;10386989;28;20049;-46
2023/06/02 19:23:22;;;;;;;27.40;9.23;;;;;;;19.73;51.83;97046.88;10376379;28;20042;-45
2023/06/02 19:28:41;;;;;;;27.42;8.80;;;;;;;19.73;51.69;97063.09;10372720;28;20061;-45
2023/06/02 19:34:01;;;;;;;26.98;8.45;;;;;;;19.72;51.91;97066.94;10382840;28;20042;-47
2023/06/02 19:39:21;;;;;;;23.83;8.57;;;;;;;19.72;51.94;97066.94;10393821;28;20068;-46
2023/06/02 19:44:45;;;;;;;22.25;8.20;;;;;;;19.74;52.12;97072.03;10387431;28;20041;-47
2023/06/02 19:50:06;;;;;;;21.52;7.72;;;;;;;19.72;52.04;97080.44;10381497;28;20061;-45
2023/06/02 19:55:26;;;;;;;22.90;7.75;;;;;;;19.74;52.08;97074.72;10373150;28;20409;-47
2023/06/02 20:00:47;;;;;;;19.85;7.55;;;;;;;19.74;52.57;97080.13;10384859;28;20124;-45
2023/06/02 20:06:08;;;;;;;23.05;7.65;;;;;;;19.74;52.30;97086.31;10384836;28;20041;-46
2023/06/02 20:11:28;;;;;;;19.17;7.07;;;;;;;19.73;52.24;97086.63;10382798;28;20042;-45
2023/06/02 20:16:47;;;;;;;13.65;6.25;;;;;;;19.73;52.17;97095.53;10379851;28;20042;-46
2023/06/02 20:22:07;;;;;;;14.95;6.45;;;;;;;19.74;52.59;97101.75;10381354;28;20075;-45
2023/06/02 20:27:27;;;;;;;16.30;6.47;;;;;;;19.74;52.33;97101.75;10381259;28;20099;-44
2023/06/02 20:32:46;;;;;;;14.80;6.35;;;;;;;19.73;52.35;97113.66;10367173;28;20042;-45
2023/06/02 20:38:06;;;;;;;16.52;6.45;;;;;;;19.72;52.47;97110.19;10395027;28;20041;-45
2023/06/02 20:43:25;;;;;;;14.20;6.40;;;;;;;19.73;52.37;97110.97;10399935;28;20045;-45
2023/06/02 20:48:45;;;;;;;12.60;6.40;;;;;;;19.72;52.42;97114.78;10395141;28;20057;-47
2023/06/02 20:54:08;;;;;;;13.88;6.40;;;;;;;19.72;52.54;97121.00;10402044;28;20413;-46
2023/06/02 20:59:28;;;;;;;12.30;5.65;;;;;;;19.72;52.53;97126.41;10380017;28;20747;-46
2023/06/02 21:04:47;;;;;;;13.18;5.82;;;;;;;19.72;52.56;97122.91;10379858;28;20073;-45
2023/06/02 21:10:08;;;;;;;12.63;5.57;;;;;;;19.73;53.02;97124.47;10385155;28;20129;-44
2023/06/02 21:15:29;;;;;;;14.32;5.10;;;;;;;19.73;52.80;97130.69;10387207;28;20068;-45
2023/06/02 21:20:49;;;;;;;10.35;5.63;;;;;;;19.71;52.67;97123.97;10407403;28;20050;-45
2023/06/02 21:26:12;;;;;;;11.70;5.32;;;;;;;19.72;52.79;97125.59;10379494;28;20555;-46
2023/06/02 21:31:31;;;;;;;10.55;5.03;;;;;;;19.71;52.85;97132.91;10379564;28;20062;-46
2023/06/02 21:36:53;;;;;;;12.23;5.13;;;;;;;19.72;53.02;97141.81;10392292;28;20065;-45
2023/06/02 21:42:13;;;;;;;9.95;4.88;;;;;;;19.72;53.49;97141.81;10368283;28;20057;-46
2023/06/02 21:47:32;;;;;;;11.88;4.55;;;;;;;19.73;53.84;97144.19;10396659;28;20483;-45
2023/06/02 21:52:51;;;;;;;9.40;5.00;;;;;;;19.72;53.48;97148.03;10364950;28;20053;-45
2023/06/02 21:58:11;;;;;;;8.38;4.43;;;;;;;19.72;53.57;97142.63;10384946;28;20119;-45
2023/06/02 22:03:30;;;;;;;9.50;5.10;;;;;;;19.72;53.60;97144.53;10391737;28;20072;-45
2023/06/02 22:08:50;;;;;;;7.68;4.40;;;;;;;19.72;53.65;97144.53;10370033;28;20050;-47
2023/06/02 22:14:11;;;;;;;9.35;5.03;;;;;;;19.71;53.65;97145.59;10388093;28;20128;-46
2023/06/02 22:19:30;;;;;;;8.13;4.35;;;;;;;19.71;53.84;97149.13;10385171;28;20469;-45
2023/06/02 22:24:50;;;;;;;8.55;4.53;;;;;;;19.72;53.90;97144.53;10372140;28;20069;-46
2023/06/02 22:30:11;;;;;;;7.70;4.40;;;;;;;19.71;53.84;97145.59;10384800;28;20045;-46
2023/06/02 22:35:31;;;;;;;8.35;4.28;;;;;;;19.71;53.92;97140.19;10374504;28;20053;-46
2023/06/02 22:40:51;;;;;;;8.48;4.50;;;;;;;19.70;54.04;97136.69;10423844;28;20042;-44
2023/06/02 22:46:10;;;;;;;9.20;4.40;;;;;;;19.70;54.25;97146.72;10394054;28;20414;-48
2023/06/02 22:51:30;;;;;;;11.27;4.68;;;;;;;19.70;54.22;97149.44;10388927;28;20054;-46
2023/06/02 22:56:49;;;;;;;6.95;4.07;;;;;;;19.71;54.30;97161.81;10383604;28;20038;-46
2023/06/02 23:02:09;;;;;;;8.07;4.25;;;;;;;19.70;54.39;97160.25;10386696;28;20041;-49
2023/06/02 23:07:28;;;;;;;8.00;4.30;;;;;;;19.70;54.57;97155.63;10384014;28;20053;-45
2023/06/02 23:12:48;;;;;;;7.75;4.00;;;;;;;19.69;54.47;97158.63;10379708;28;20045;-45
2023/06/02 23:18:08;;;;;;;6.10;3.30;;;;;;;19.71;54.46;97156.41;10382602;28;20056;-46
2023/06/02 23:23:28;;;;;;;6.85;3.70;;;;;;;19.69;54.54;97164.81;10385834;28;20038;-44
2023/06/02 23:28:48;;;;;;;6.45;3.75;;;;;;;19.69;54.65;97158.63;10396157;28;20038;-47
2023/06/02 23:34:08;;;;;;;7.95;3.90;;;;;;;19.70;54.67;97168.34;10393454;28;20494;-46
2023/06/02 23:39:27;;;;;;;5.18;3.60;;;;;;;19.69;54.71;97166.75;10371269;28;20095;-45
2023/06/02 23:44:47;;;;;;;7.47;3.90;;;;;;;19.69;54.71;97172.16;10388315;28;21880;-48
2023/06/02 23:50:07;;;;;;;4.88;3.28;;;;;;;19.67;54.86;97172.47;10391516;28;20045;-46
2023/06/02 23:55:27;;;;;;;6.68;3.45;;;;;;;19.68;54.77;97167.84;10383867;28;20049;-46
